Time;durP1;ratioP1;P1;durP2;ratioP2;P2;SDS_P1;SDS_P2;PMS_P1;PMS_P2;Temp;Humidity;BMP_temperature;BMP_pressure;BME280_temperature;BME280_humidity;BME280_pressure;Samples;Min_cycle;Max_cycle;Signal;HPM_P1;HPM_P2
2023/10/28 00:01:45;;;;;;;0.60;0.60;;;;;;;10.13;100.00;96600.91;5074480;28;20231;-81
2023/10/28 00:04:11;;;;;;;0.63;0.50;;;;;;;10.15;100.00;96598.94;5073978;28;20236;-82
2023/10/28 00:06:39;;;;;;;0.50;0.50;;;;;;;10.19;100.00;96602.13;5073596;28;20658;-81
2023/10/28 00:09:05;;;;;;;2.57;0.57;;;;;;;10.10;100.00;96598.53;5073557;28;20213;-81
2023/10/28 00:11:33;;;;;;;0.40;0.40;;;;;;;10.11;100.00;96602.00;5073225;28;20227;-83
2023/10/28 00:14:00;;;;;;;0.40;0.40;;;;;;;10.12;100.00;96608.94;5073058;28;20238;-83
2023/10/28 00:16:26;;;;;;;0.50;0.50;;;;;;;10.11;100.00;96612.56;5073058;28;20211;-80
2023/10/28 00:18:53;;;;;;;0.43;0.40;;;;;;;10.13;100.00;96615.91;5073089;28;20687;-82
2023/10/28 00:21:21;;;;;;;0.93;0.50;;;;;;;10.10;100.00;96605.63;5073363;28;20227;-82
2023/10/28 00:23:48;;;;;;;0.30;0.30;;;;;;;10.12;100.00;96612.44;5072619;28;20215;-81
2023/10/28 00:26:14;;;;;;;0.63;0.40;;;;;;;10.15;100.00;96608.69;5072969;28;20215;-80
2023/10/28 00:28:42;;;;;;;0.70;0.53;;;;;;;10.14;100.00;96607.00;5073073;28;20240;-81
2023/10/28 00:31:08;;;;;;;1.87;0.40;;;;;;;10.12;100.00;96614.22;5072746;28;20239;-79
2023/10/28 00:33:35;;;;;;;0.53;0.50;;;;;;;10.10;100.00;96610.91;5071615;28;20204;-83
2023/10/28 00:36:07;;;;;;;0.50;0.50;;;;;;;10.08;100.00;96612.84;5072505;28;20354;-82
2023/10/28 00:38:34;;;;;;;1.57;0.50;;;;;;;10.04;100.00;96622.03;5072571;28;20209;-81
2023/10/28 00:41:00;;;;;;;0.63;0.40;;;;;;;10.06;100.00;96614.78;5072388;28;20231;-82
2023/10/28 00:43:27;;;;;;;0.40;0.40;;;;;;;9.99;100.00;96614.50;5071876;28;20209;-82
2023/10/28 00:45:56;;;;;;;0.80;0.50;;;;;;;10.03;100.00;96612.41;5075273;28;20205;-81
2023/10/28 00:48:23;;;;;;;1.23;0.50;;;;;;;10.06;100.00;96620.06;5077790;28;20210;-83
2023/10/28 00:50:50;;;;;;;1.13;0.50;;;;;;;10.03;100.00;96625.63;5076500;28;20203;-83
2023/10/28 00:53:17;;;;;;;0.70;0.50;;;;;;;9.98;100.00;96628.66;5076471;28;20208;-82
2023/10/28 00:55:43;;;;;;;0.50;0.50;;;;;;;9.99;100.00;96632.13;5076978;28;20269;-83
2023/10/28 00:58:11;;;;;;;0.70;0.50;;;;;;;10.10;100.00;96632.03;5077482;28;20219;-82
2023/10/28 01:00:38;;;;;;;0.50;0.40;;;;;;;10.13;100.00;96627.31;5075634;28;20259;-83
2023/10/28 01:03:09;;;;;;;0.43;0.40;;;;;;;10.07;100.00;96638.41;5091419;28;20201;-84
2023/10/28 01:05:36;;;;;;;1.50;0.47;;;;;;;10.04;100.00;96649.22;5095726;28;20359;-83
2023/10/28 01:08:02;;;;;;;1.00;0.50;;;;;;;10.03;100.00;96647.56;5101873;28;20213;-81
2023/10/28 01:10:31;;;;;;;0.63;0.43;;;;;;;10.02;100.00;96647.66;5101858;28;20188;-80
2023/10/28 01:12:59;;;;;;;0.43;0.40;;;;;;;10.02;100.00;96639.75;5101201;28;20194;-80
2023/10/28 01:15:27;;;;;;;0.87;0.50;;;;;;;9.95;100.00;96643.91;5081790;28;20726;-82
2023/10/28 01:17:54;;;;;;;0.40;0.40;;;;;;;9.88;100.00;96648.09;5076264;28;20204;-81
2023/10/28 01:20:22;;;;;;;0.70;0.50;;;;;;;9.89;100.00;96652.38;5075857;28;20246;-82
2023/10/28 01:22:50;;;;;;;0.80;0.80;;;;;;;9.89;100.00;96645.31;5075327;28;20223;-81
2023/10/28 01:25:16;;;;;;;0.40;0.40;;;;;;;9.97;100.00;96648.09;5075786;28;20209;-81
2023/10/28 01:27:44;;;;;;;0.50;0.47;;;;;;;9.96;100.00;96656.97;5074746;28;20205;-82
2023/10/28 01:30:14;;;;;;;0.70;0.40;;;;;;;9.98;100.00;96656.84;5075633;28;20206;-83
2023/10/28 01:32:41;;;;;;;1.13;0.40;;;;;;;9.90;100.00;96651.44;5085422;28;20228;-81
2023/10/28 01:35:10;;;;;;;1.80;0.40;;;;;;;9.97;100.00;96657.84;5075918;28;20294;-83
2023/10/28 01:37:38;;;;;;;0.30;0.30;;;;;;;9.96;100.00;96653.50;5095943;28;20192;-84
2023/10/28 01:40:12;;;;;;;1.33;0.40;;;;;;;9.89;100.00;96655.03;5100251;28;20192;-82
2023/10/28 01:42:39;;;;;;;0.77;0.60;;;;;;;9.87;100.00;96654.34;5087033;28;20298;-84
2023/10/28 01:45:06;;;;;;;1.57;0.60;;;;;;;9.83;100.00;96656.41;5079939;28;20210;-84
2023/10/28 01:47:33;;;;;;;0.70;0.60;;;;;;;9.80;100.00;96658.50;5079795;28;20209;-82
2023/10/28 01:49:59;;;;;;;0.30;0.30;;;;;;;9.75;100.00;96655.44;5079819;28;20213;-83
2023/10/28 01:52:26;;;;;;;0.93;0.50;;;;;;;9.79;100.00;96665.56;5079349;28;20235;-83
2023/10/28 01:54:53;;;;;;;2.10;0.60;;;;;;;9.78;100.00;96663.09;5079020;28;20227;-82
2023/10/28 01:57:21;;;;;;;0.33;0.33;;;;;;;9.85;100.00;96675.56;5078559;28;20211;-82
2023/10/28 01:59:47;;;;;;;0.43;0.43;;;;;;;9.86;100.00;96665.88;5078767;28;20217;-82
2023/10/28 02:02:14;;;;;;;1.60;0.60;;;;;;;9.90;100.00;96667.28;5078024;28;20224;-81
2023/10/28 02:04:40;;;;;;;1.23;0.50;;;;;;;9.94;100.00;96668.66;5078505;28;20204;-83
2023/10/28 02:07:07;;;;;;;1.97;0.50;;;;;;;9.97;100.00;96674.47;5078388;28;20214;-84
2023/10/28 02:09:33;;;;;;;0.40;0.40;;;;;;;9.99;100.00;96679.63;5078265;28;20724;-84
2023/10/28 02:12:01;;;;;;;1.00;0.70;;;;;;;10.07;100.00;96685.06;5078093;28;20227;-84
2023/10/28 02:14:29;;;;;;;1.10;0.63;;;;;;;10.05;100.00;96687.03;5077073;28;20207;-82
2023/10/28 02:16:56;;;;;;;0.63;0.50;;;;;;;10.02;100.00;96681.97;5078456;28;20208;-82
2023/10/28 02:19:23;;;;;;;1.03;0.60;;;;;;;10.01;100.00;96688.22;5078223;28;20216;-82
2023/10/28 02:21:50;;;;;;;0.40;0.40;;;;;;;9.96;100.00;96687.81;5077719;28;20234;-82
2023/10/28 02:24:19;;;;;;;0.87;0.60;;;;;;;9.87;100.00;96688.63;5077833;28;20212;-82
2023/10/28 02:26:46;;;;;;;0.53;0.50;;;;;;;9.81;100.00;96699.75;5077428;28;20208;-82
2023/10/28 02:29:12;;;;;;;0.40;0.40;;;;;;;9.75;100.00;96695.84;5077943;28;20206;-82
2023/10/28 02:31:40;;;;;;;0.77;0.57;;;;;;;9.78;100.00;96700.84;5081021;28;20322;-82
2023/10/28 02:34:07;;;;;;;0.90;0.57;;;;;;;9.81;100.00;96691.81;5088085;28;20204;-83
2023/10/28 02:36:34;;;;;;;2.37;0.70;;;;;;;9.69;100.00;96695.53;5090081;28;20288;-82
2023/10/28 02:39:00;;;;;;;1.63;0.57;;;;;;;9.67;100.00;96694.84;5087999;28;20215;-81
2023/10/28 02:41:27;;;;;;;1.30;0.57;;;;;;;9.65;100.00;96699.41;5088934;28;20228;-82
2023/10/28 02:43:53;;;;;;;1.27;0.60;;;;;;;9.60;100.00;96694.56;5089600;28;20211;-83
2023/10/28 02:46:23;;;;;;;0.50;0.50;;;;;;;9.52;100.00;96694.41;5087824;28;20203;-83
2023/10/28 02:48:52;;;;;;;0.40;0.40;;;;;;;9.50;100.00;96691.06;5089512;28;20270;-81
2023/10/28 02:51:18;;;;;;;1.27;0.70;;;;;;;9.44;100.00;96698.66;5092223;28;20229;-81
2023/10/28 02:53:45;;;;;;;0.70;0.50;;;;;;;9.40;100.00;96705.16;5093759;28;20271;-82
2023/10/28 02:56:12;;;;;;;2.00;0.60;;;;;;;9.30;100.00;96710.41;5094831;28;20229;-80
2023/10/28 02:58:39;;;;;;;1.30;0.67;;;;;;;9.29;100.00;96707.88;5092058;28;20225;-83
2023/10/28 03:01:10;;;;;;;1.70;0.77;;;;;;;9.32;100.00;96708.50;5087794;28;20240;-81
2023/10/28 03:03:36;;;;;;;0.93;0.50;;;;;;;9.34;100.00;96701.28;5094100;28;20199;-81
2023/10/28 03:06:04;;;;;;;1.17;0.60;;;;;;;9.36;100.00;96706.44;5095146;28;20212;-81
2023/10/28 03:08:31;;;;;;;1.07;0.60;;;;;;;9.36;100.00;96709.06;5093101;28;20246;-80
2023/10/28 03:10:57;;;;;;;0.80;0.70;;;;;;;9.35;100.00;96707.38;5093193;28;20287;-80
2023/10/28 03:13:24;;;;;;;2.07;0.80;;;;;;;9.38;100.00;96701.84;5092764;28;20197;-79
2023/10/28 03:15:51;;;;;;;1.80;0.73;;;;;;;9.37;100.00;96697.53;5093993;28;20231;-81
2023/10/28 03:18:17;;;;;;;0.80;0.53;;;;;;;9.48;100.00;96693.00;5093181;28;20222;-80
2023/10/28 03:20:44;;;;;;;2.60;0.77;;;;;;;9.44;100.00;96696.88;5093332;28;20210;-80
2023/10/28 03:23:11;;;;;;;0.73;0.73;;;;;;;9.39;100.00;96703.50;5092391;28;20212;-80
2023/10/28 03:25:38;;;;;;;1.57;0.87;;;;;;;9.35;100.00;96702.09;5093859;28;20314;-81
2023/10/28 03:28:05;;;;;;;2.70;0.80;;;;;;;9.36;100.00;96701.16;5093993;28;20211;-80
2023/10/28 03:30:31;;;;;;;2.50;1.00;;;;;;;9.33;100.00;96709.31;5093236;28;20218;-81
2023/10/28 03:32:58;;;;;;;1.90;0.80;;;;;;;9.31;100.00;96709.44;5092300;28;20213;-80
2023/10/28 03:35:24;;;;;;;1.83;0.90;;;;;;;9.35;100.00;96707.38;5092820;28;20232;-80
2023/10/28 03:37:51;;;;;;;1.03;0.80;;;;;;;9.36;100.00;96703.78;5084073;28;20229;-81
2023/10/28 03:40:19;;;;;;;1.43;0.90;;;;;;;9.40;100.00;96705.16;5080296;28;20217;-83
2023/10/28 03:42:45;;;;;;;2.97;0.87;;;;;;;9.50;100.00;96706.03;5077575;28;20233;-82
2023/10/28 03:45:12;;;;;;;2.03;1.00;;;;;;;9.56;100.00;96702.88;5078663;28;20214;-82
2023/10/28 03:47:38;;;;;;;2.30;0.73;;;;;;;9.70;100.00;96703.34;5078258;28;20219;-82
2023/10/28 03:50:06;;;;;;;2.77;0.70;;;;;;;9.72;100.00;96701.38;5078169;28;20215;-81
2023/10/28 03:52:33;;;;;;;3.90;1.17;;;;;;;9.80;100.00;96708.63;5077679;28;20245;-83
2023/10/28 03:55:00;;;;;;;2.73;0.90;;;;;;;9.80;100.00;96700.72;5078051;28;20204;-83
2023/10/28 03:57:28;;;;;;;2.43;0.80;;;;;;;9.87;100.00;96704.47;5078739;28;20206;-83
2023/10/28 03:59:55;;;;;;;1.63;0.70;;;;;;;9.85;100.00;96699.31;5077036;28;20210;-82
2023/10/28 04:02:21;;;;;;;3.37;1.17;;;;;;;9.87;100.00;96704.47;5076488;28;20229;-83
2023/10/28 04:04:48;;;;;;;1.97;1.07;;;;;;;9.87;100.00;96696.56;5077211;28;20211;-83
2023/10/28 04:07:14;;;;;;;2.33;0.90;;;;;;;9.88;100.00;96699.06;5076831;28;20210;-83
2023/10/28 04:09:41;;;;;;;2.60;0.90;;;;;;;9.96;100.00;96698.38;5076788;28;20623;-84
2023/10/28 04:12:09;;;;;;;1.77;0.77;;;;;;;9.98;100.00;96702.53;5086392;28;20293;-81
2023/10/28 04:14:37;;;;;;;2.57;0.73;;;;;;;9.97;100.00;96695.59;5089556;28;20225;-79
2023/10/28 04:17:04;;;;;;;1.47;0.70;;;;;;;10.04;100.00;96698.56;5090503;28;20227;-81
2023/10/28 04:19:30;;;;;;;6.63;1.37;;;;;;;10.04;100.00;96690.66;5089647;28;20237;-80
2023/10/28 04:21:57;;;;;;;3.23;0.73;;;;;;;10.08;100.00;96694.66;5090431;28;20321;-80
2023/10/28 04:24:23;;;;;;;1.80;0.80;;;;;;;10.07;100.00;96690.34;5081536;28;20212;-83
2023/10/28 04:26:50;;;;;;;1.60;0.80;;;;;;;10.04;100.00;96695.94;5082090;28;20216;-83
2023/10/28 04:29:16;;;;;;;4.47;0.93;;;;;;;10.07;100.00;96685.94;5082332;28;20210;-82
2023/10/28 04:31:44;;;;;;;1.97;0.93;;;;;;;10.03;100.00;96684.53;5083513;28;20255;-80
2023/10/28 04:34:12;;;;;;;1.77;0.83;;;;;;;10.00;100.00;96684.78;5082930;28;20280;-82
2023/10/28 04:36:38;;;;;;;2.80;1.00;;;;;;;9.98;100.00;96691.16;5081898;28;20231;-80
2023/10/28 04:39:05;;;;;;;3.37;0.90;;;;;;;9.97;100.00;96697.41;5082379;28;20215;-82
2023/10/28 04:41:32;;;;;;;4.20;0.97;;;;;;;9.95;100.00;96696.69;5085216;28;20228;-81
2023/10/28 04:43:59;;;;;;;2.13;0.80;;;;;;;9.81;100.00;96690.03;5089205;28;20269;-82
2023/10/28 04:46:25;;;;;;;2.83;0.87;;;;;;;9.71;100.00;96694.44;5087240;28;20206;-81
2023/10/28 04:48:53;;;;;;;0.80;0.60;;;;;;;9.66;100.00;96690.56;5086792;28;20207;-82
2023/10/28 04:51:19;;;;;;;3.07;0.93;;;;;;;9.53;100.00;96690.78;5086212;28;20240;-80
2023/10/28 04:53:46;;;;;;;2.20;0.90;;;;;;;9.50;100.00;96692.88;5090833;28;20219;-80
2023/10/28 04:56:12;;;;;;;1.80;0.80;;;;;;;9.52;100.00;96691.75;5091070;28;20215;-80
2023/10/28 04:58:39;;;;;;;1.47;0.80;;;;;;;9.51;100.00;96687.47;5087720;28;20749;-82
2023/10/28 05:01:05;;;;;;;1.63;0.63;;;;;;;9.63;100.00;96690.81;5079453;28;20614;-83
2023/10/28 05:03:32;;;;;;;2.80;0.73;;;;;;;9.60;100.00;96691.09;5077827;28;20206;-80
2023/10/28 05:06:00;;;;;;;2.10;0.83;;;;;;;9.65;100.00;96688.88;5078391;28;20646;-83
2023/10/28 05:08:27;;;;;;;1.73;0.73;;;;;;;9.65;100.00;96692.34;5077539;28;20214;-82
2023/10/28 05:10:54;;;;;;;2.80;0.80;;;;;;;9.66;100.00;96690.56;5079726;28;20704;-83
2023/10/28 05:13:20;;;;;;;1.93;0.87;;;;;;;9.69;100.00;96690.28;5077236;28;20278;-82
2023/10/28 05:15:48;;;;;;;0.90;0.53;;;;;;;9.69;100.00;96692.91;5092299;28;20237;-82
2023/10/28 05:18:14;;;;;;;1.63;0.60;;;;;;;9.73;100.00;96691.69;5096570;28;20194;-81
2023/10/28 05:20:41;;;;;;;1.50;0.60;;;;;;;9.66;100.00;96683.47;5096336;28;20277;-81
2023/10/28 05:23:09;;;;;;;1.33;0.60;;;;;;;9.57;100.00;96683.44;5084031;28;20267;-82
2023/10/28 05:25:35;;;;;;;2.03;0.83;;;;;;;9.49;100.00;96688.56;5076583;28;20205;-82
2023/10/28 05:28:02;;;;;;;1.13;0.60;;;;;;;9.48;100.00;96687.72;5076137;28;20328;-83
2023/10/28 05:30:28;;;;;;;3.27;0.90;;;;;;;9.46;100.00;96694.94;5075948;28;20216;-84
2023/10/28 05:32:55;;;;;;;1.23;0.73;;;;;;;9.44;100.00;96696.03;5077864;28;20225;-83
2023/10/28 05:35:21;;;;;;;2.23;0.60;;;;;;;9.47;100.00;96693.13;5079613;28;20228;-84
2023/10/28 05:37:48;;;;;;;1.70;0.73;;;;;;;9.52;100.00;96698.81;5080248;28;20209;-83
2023/10/28 05:40:16;;;;;;;1.03;0.70;;;;;;;9.56;100.00;96694.97;5079937;28;20234;-82
2023/10/28 05:42:42;;;;;;;1.53;0.60;;;;;;;9.55;100.00;96695.94;5078780;28;20233;-83
2023/10/28 05:45:10;;;;;;;3.33;0.90;;;;;;;9.51;100.00;96702.44;5079513;28;20668;-83
2023/10/28 05:47:37;;;;;;;2.17;0.67;;;;;;;9.47;100.00;96703.66;5079303;28;20300;-83
2023/10/28 05:50:05;;;;;;;0.83;0.60;;;;;;;9.35;100.00;96712.63;5078971;28;20707;-83
2023/10/28 05:52:32;;;;;;;2.00;0.80;;;;;;;9.26;100.00;96708.19;5079645;28;20238;-83
2023/10/28 05:54:58;;;;;;;0.60;0.60;;;;;;;9.17;100.00;96715.06;5080985;28;20213;-83
2023/10/28 05:57:26;;;;;;;1.03;0.63;;;;;;;9.14;100.00;96717.13;5081235;28;20257;-83
2023/10/28 05:59:53;;;;;;;0.90;0.67;;;;;;;9.15;100.00;96724.06;5081172;28;20269;-83
2023/10/28 06:02:20;;;;;;;1.03;0.47;;;;;;;9.13;100.00;96726.00;5080380;28;20234;-85
2023/10/28 06:04:46;;;;;;;1.43;0.77;;;;;;;9.15;100.00;96724.91;5080774;28;20209;-82
2023/10/28 06:07:12;;;;;;;2.07;1.10;;;;;;;9.21;100.00;96736.72;5078574;28;20206;-80
2023/10/28 06:09:39;;;;;;;1.33;0.70;;;;;;;9.23;100.00;96730.34;5080912;28;20217;-82
2023/10/28 06:12:06;;;;;;;2.37;0.80;;;;;;;9.36;100.00;96730.16;5087907;28;20337;-79
2023/10/28 06:14:34;;;;;;;1.47;0.73;;;;;;;9.51;100.00;96742.84;5100099;22;20231;-80
2023/10/28 06:17:00;;;;;;;2.10;0.80;;;;;;;9.59;100.00;96737.72;5054743;28;20224;-81
2023/10/28 06:19:27;;;;;;;0.70;0.53;;;;;;;9.75;100.00;96731.94;5055201;28;20217;-81
2023/10/28 06:21:53;;;;;;;2.23;1.10;;;;;;;9.86;100.00;96731.84;5055474;28;20235;-79
2023/10/28 06:24:20;;;;;;;2.13;0.80;;;;;;;9.93;100.00;96736.44;5055856;28;20219;-80
2023/10/28 06:26:46;;;;;;;1.50;0.60;;;;;;;9.95;100.00;96736.28;5055080;28;20205;-81
2023/10/28 06:29:13;;;;;;;1.93;0.83;;;;;;;9.98;100.00;96743.94;5054297;28;20218;-80
2023/10/28 06:31:43;;;;;;;2.00;1.00;;;;;;;10.08;100.00;96750.09;5054241;28;20235;-80
2023/10/28 06:34:10;;;;;;;1.63;0.63;;;;;;;10.12;100.00;96752.34;5052308;28;20610;-80
2023/10/28 06:36:37;;;;;;;1.07;0.60;;;;;;;10.13;100.00;96763.72;5052667;28;20237;-81
2023/10/28 06:39:03;;;;;;;3.27;0.90;;;;;;;10.23;100.00;96759.31;5054555;28;20306;-81
2023/10/28 06:41:30;;;;;;;1.00;0.67;;;;;;;10.27;100.00;96752.78;5054443;28;20630;-81
2023/10/28 06:44:02;;;;;;;1.40;0.80;;;;;;;10.29;100.00;96753.47;5053943;28;20212;-81
2023/10/28 06:46:28;;;;;;;1.43;0.80;;;;;;;10.39;100.00;96754.31;5054173;28;20206;-81
2023/10/28 06:48:56;;;;;;;1.40;0.90;;;;;;;10.39;100.00;96768.34;5054095;28;20204;-81
2023/10/28 06:51:23;;;;;;;2.47;0.80;;;;;;;10.41;100.00;96762.94;5054515;28;20236;-83
2023/10/28 06:53:49;;;;;;;2.30;0.90;;;;;;;10.40;100.00;96770.00;5054422;28;20703;-82
2023/10/28 06:56:16;;;;;;;1.40;0.90;;;;;;;10.43;100.00;96766.25;5056176;28;20679;-83
2023/10/28 06:58:43;;;;;;;1.73;0.80;;;;;;;10.44;100.00;96762.66;5057698;28;20275;-82
2023/10/28 07:01:09;;;;;;;0.93;0.67;;;;;;;10.46;100.00;96774.75;5056114;28;20230;-82
2023/10/28 07:03:37;;;;;;;2.30;0.80;;;;;;;10.43;100.00;96784.75;5056431;28;20209;-81
2023/10/28 07:06:06;;;;;;;2.67;0.80;;;;;;;10.47;100.00;96784.31;5057261;28;20209;-82
2023/10/28 07:08:36;;;;;;;1.40;0.60;;;;;;;10.51;100.00;96790.19;5057806;28;20217;-81
2023/10/28 07:11:02;;;;;;;4.10;0.90;;;;;;;10.67;100.00;96806.31;5056942;28;20742;-82
2023/10/28 07:13:29;;;;;;;2.00;0.97;;;;;;;10.71;100.00;96802.44;5056568;28;20215;-82
2023/10/28 07:16:00;;;;;;;3.47;0.83;;;;;;;10.78;100.00;96793.81;5056291;28;20237;-83
2023/10/28 07:18:27;;;;;;;2.23;0.50;;;;;;;10.84;100.00;96784.50;5056723;28;20251;-82
2023/10/28 07:20:53;;;;;;;3.63;1.00;;;;;;;10.94;100.00;96790.63;5057789;28;20254;-82
2023/10/28 07:23:21;;;;;;;3.00;0.90;;;;;;;11.00;100.00;96800.63;5056399;28;20553;-83
2023/10/28 07:25:49;;;;;;;2.93;0.87;;;;;;;11.06;100.00;96808.81;5057052;28;20208;-83
2023/10/28 07:28:16;;;;;;;1.10;0.67;;;;;;;11.09;100.00;96818.28;5062722;28;20218;-83
2023/10/28 07:30:45;;;;;;;2.87;0.90;;;;;;;11.08;100.00;96811.31;5057476;28;20208;-83
2023/10/28 07:33:13;;;;;;;1.80;0.63;;;;;;;11.17;100.00;96810.47;5057149;28;20215;-83
2023/10/28 07:35:44;;;;;;;2.80;1.03;;;;;;;11.28;100.00;96805.88;5057343;28;20268;-84
2023/10/28 07:38:10;;;;;;;2.90;0.90;;;;;;;11.44;100.00;96798.16;5057708;28;20217;-82
2023/10/28 07:40:38;;;;;;;3.17;1.13;;;;;;;11.55;100.00;96803.28;5056547;28;20214;-81
2023/10/28 07:43:05;;;;;;;4.73;1.00;;;;;;;11.65;100.00;96805.91;5055577;28;20619;-82
2023/10/28 07:45:31;;;;;;;1.47;0.90;;;;;;;11.62;100.00;96814.16;5055261;28;20208;-81
2023/10/28 07:47:58;;;;;;;2.50;0.87;;;;;;;11.56;100.00;96812.88;5055333;28;20229;-81
2023/10/28 07:50:24;;;;;;;2.63;0.80;;;;;;;11.52;100.00;96805.38;5053884;28;20207;-81
2023/10/28 07:52:51;;;;;;;4.03;1.00;;;;;;;11.53;100.00;96807.88;5051895;28;20231;-81
2023/10/28 07:55:17;;;;;;;2.37;1.00;;;;;;;11.61;100.00;96821.25;5052563;28;20267;-81
2023/10/28 07:57:45;;;;;;;3.17;1.00;;;;;;;11.75;100.00;96817.31;5055160;28;20256;-80
2023/10/28 08:00:13;;;;;;;2.08;0.90;;;;;;;11.72;100.00;96807.00;5054928;28;20427;-81
2023/10/28 08:02:44;;;;;;;2.23;0.80;;;;;;;11.78;100.00;96811.72;5053274;28;20238;-84
2023/10/28 08:05:11;;;;;;;2.33;0.87;;;;;;;11.86;100.00;96828.53;5054462;28;20211;-81
2023/10/28 08:07:38;;;;;;;3.80;0.80;;;;;;;11.96;100.00;96825.84;5053515;28;20689;-82
2023/10/28 08:10:06;;;;;;;1.57;0.80;;;;;;;11.98;100.00;96829.22;5053135;28;20235;-82
2023/10/28 08:12:32;;;;;;;4.13;0.80;;;;;;;12.11;100.00;96819.13;5052166;28;20261;-82
2023/10/28 08:15:02;;;;;;;2.80;0.80;;;;;;;12.14;100.00;96829.41;5053046;28;20215;-82
2023/10/28 08:17:30;;;;;;;2.93;0.67;;;;;;;12.14;100.00;96824.09;5053019;28;20551;-82
2023/10/28 08:19:57;;;;;;;0.97;0.70;;;;;;;12.16;100.00;96819.50;5054696;28;20213;-81
2023/10/28 08:22:25;;;;;;;1.33;0.90;;;;;;;12.25;100.00;96821.25;5052337;28;20751;-82
2023/10/28 08:24:52;;;;;;;3.50;0.90;;;;;;;12.34;100.00;96815.09;5053115;28;20576;-81
2023/10/28 08:27:19;;;;;;;2.23;0.90;;;;;;;12.42;99.35;96823.13;5053333;28;20203;-82
2023/10/28 08:29:48;;;;;;;2.20;0.93;;;;;;;12.49;98.15;96821.53;5053229;28;20213;-82
2023/10/28 08:32:17;;;;;;;2.10;0.83;;;;;;;12.58;96.48;96810.03;5053171;28;20352;-82
2023/10/28 08:34:44;;;;;;;3.07;0.93;;;;;;;12.66;97.54;96816.25;5055212;28;20243;-81
2023/10/28 08:37:13;;;;;;;2.97;1.00;;;;;;;12.75;95.09;96825.13;5052904;28;20246;-81
2023/10/28 08:39:40;;;;;;;1.63;0.60;;;;;;;12.77;94.00;96816.03;5053768;28;20744;-81
2023/10/28 08:42:07;;;;;;;3.83;0.93;;;;;;;12.82;96.31;96811.09;5055397;28;20726;-82
2023/10/28 08:44:34;;;;;;;2.67;0.90;;;;;;;12.91;92.36;96814.66;5054374;28;20215;-81
2023/10/28 08:47:06;;;;;;;2.03;1.10;;;;;;;13.04;91.73;96815.16;5054434;28;20207;-81
2023/10/28 08:49:37;;;;;;;3.83;1.10;;;;;;;13.11;90.55;96817.03;5053899;28;20436;-79
2023/10/28 08:52:07;;;;;;;2.20;0.70;;;;;;;13.24;91.73;96817.47;5055176;28;20435;-82
2023/10/28 08:54:35;;;;;;;2.40;0.73;;;;;;;13.35;90.67;96829.66;5058463;28;20710;-82
2023/10/28 08:57:04;;;;;;;2.13;0.80;;;;;;;13.42;92.02;96830.69;5059248;28;20238;-82
2023/10/28 08:59:31;;;;;;;3.00;0.80;;;;;;;13.53;90.92;96827.81;5059252;28;20207;-82
2023/10/28 09:01:59;;;;;;;1.73;0.90;;;;;;;13.51;90.27;96829.78;5056946;28;20238;-82
2023/10/28 09:04:26;;;;;;;2.57;0.80;;;;;;;13.42;88.34;96826.25;5054140;28;20244;-82
2023/10/28 09:06:54;;;;;;;1.40;0.70;;;;;;;13.36;89.68;96828.66;5053099;28;20207;-82
2023/10/28 09:09:21;;;;;;;1.87;0.70;;;;;;;13.38;86.45;96816.91;5037600;28;20213;-82
2023/10/28 09:11:49;;;;;;;3.10;0.80;;;;;;;13.42;87.81;96830.69;5059113;28;20294;-82
2023/10/28 09:14:15;;;;;;;2.73;0.87;;;;;;;13.43;88.61;96842.97;5054259;28;20208;-82
2023/10/28 09:16:42;;;;;;;2.83;0.80;;;;;;;13.45;88.22;96828.56;5039380;28;20218;-81
2023/10/28 09:19:20;;;;;;;1.93;0.90;;;;;;;13.47;88.12;96834.56;5046538;28;20208;-81
2023/10/28 09:21:47;;;;;;;3.43;1.10;;;;;;;13.54;88.02;96830.31;5059579;28;20231;-81
2023/10/28 09:24:15;;;;;;;0.90;0.80;;;;;;;13.56;86.80;96832.81;5046077;28;20392;-81
2023/10/28 09:26:42;;;;;;;3.43;0.80;;;;;;;13.46;87.08;96832.06;5039446;28;20205;-81
2023/10/28 09:29:09;;;;;;;3.63;1.33;;;;;;;13.35;89.12;96841.13;5039554;28;20213;-82
2023/10/28 09:31:37;;;;;;;1.97;0.70;;;;;;;13.30;89.13;96837.25;5039289;28;20230;-81
2023/10/28 09:34:03;;;;;;;3.93;0.90;;;;;;;13.34;88.36;96828.00;5036836;28;20254;-82
2023/10/28 09:36:30;;;;;;;1.63;0.73;;;;;;;13.34;86.08;96833.31;5037088;28;20205;-80
2023/10/28 09:38:57;;;;;;;4.57;0.90;;;;;;;13.43;88.32;96840.31;5037510;28;20249;-81
2023/10/28 09:41:26;;;;;;;2.80;0.80;;;;;;;13.45;88.62;96836.53;5039409;28;20225;-82
2023/10/28 09:43:55;;;;;;;3.30;1.20;;;;;;;13.52;86.32;96831.44;5037590;28;20212;-81
2023/10/28 09:46:26;;;;;;;3.77;0.70;;;;;;;13.59;85.58;96821.88;5038799;28;20219;-81
2023/10/28 09:48:59;;;;;;;2.77;0.70;;;;;;;13.64;85.02;96824.91;5040354;28;20207;-79
2023/10/28 09:51:28;;;;;;;3.20;0.80;;;;;;;13.73;83.86;96823.94;5039058;28;20293;-81
2023/10/28 09:54:00;;;;;;;1.23;0.80;;;;;;;13.89;81.67;96810.78;5037877;28;20689;-82
2023/10/28 09:56:34;;;;;;;1.50;0.70;;;;;;;13.97;83.22;96822.28;5035736;28;20214;-82
2023/10/28 09:59:05;;;;;;;1.67;0.70;;;;;;;14.14;82.84;96829.34;5037118;28;20237;-82
2023/10/28 10:01:40;;;;;;;1.70;0.90;;;;;;;14.19;82.00;96816.41;5038231;28;20242;-82
2023/10/28 10:04:14;;;;;;;2.50;0.90;;;;;;;14.27;80.89;96812.97;5040658;28;20209;-82
2023/10/28 10:06:42;;;;;;;2.03;0.80;;;;;;;14.35;80.94;96816.47;5038812;28;20212;-82
2023/10/28 10:09:12;;;;;;;0.57;0.57;;;;;;;14.45;79.40;96817.19;5038157;28;20299;-82
2023/10/28 10:11:42;;;;;;;1.33;0.83;;;;;;;14.50;80.57;96824.69;5039384;28;20266;-80
2023/10/28 10:14:10;;;;;;;2.07;0.73;;;;;;;14.55;80.11;96827.69;5035714;28;20315;-81
2023/10/28 10:16:46;;;;;;;2.27;1.30;;;;;;;14.70;80.52;96831.38;5038197;28;20224;-82
2023/10/28 10:19:18;;;;;;;2.10;0.90;;;;;;;14.79;79.33;96833.06;5036474;28;20265;-81
2023/10/28 10:21:51;;;;;;;1.73;0.77;;;;;;;14.86;78.55;96815.44;5037406;28;20226;-80
2023/10/28 10:24:19;;;;;;;4.33;0.80;;;;;;;14.97;77.32;96815.16;5035539;28;20211;-82
2023/10/28 10:26:55;;;;;;;2.30;1.10;;;;;;;15.03;76.70;96811.81;5034799;28;20214;-82
2023/10/28 10:29:23;;;;;;;2.70;1.17;;;;;;;15.14;76.42;96814.13;5048540;28;20634;-82
2023/10/28 10:31:52;;;;;;;2.53;0.80;;;;;;;15.20;76.45;96813.47;5054157;28;20256;-81
2023/10/28 10:34:32;;;;;;;1.90;0.80;;;;;;;15.24;73.48;96806.84;5057194;28;20222;-83
2023/10/28 10:37:00;;;;;;;1.97;1.00;;;;;;;15.19;74.89;96817.13;5055903;28;20236;-82
2023/10/28 10:39:27;;;;;;;2.80;1.07;;;;;;;15.08;74.07;96814.78;5053206;28;20213;-81
2023/10/28 10:41:59;;;;;;;3.23;1.10;;;;;;;15.12;73.61;96805.50;5054031;28;20234;-81
2023/10/28 10:44:33;;;;;;;2.30;0.93;;;;;;;15.02;73.71;96804.84;5052496;28;20228;-80
2023/10/28 10:47:00;;;;;;;1.60;0.83;;;;;;;15.01;74.44;96811.13;5055153;28;20300;-81
2023/10/28 10:49:29;;;;;;;3.03;1.60;;;;;;;15.01;76.19;96813.78;5054601;28;20209;-82
2023/10/28 10:51:57;;;;;;;5.27;2.53;;;;;;;15.02;76.69;96815.50;5053928;28;20295;-82
2023/10/28 10:54:29;;;;;;;5.17;2.00;;;;;;;15.08;74.85;96809.47;5054168;28;20317;-82
2023/10/28 10:56:58;;;;;;;3.17;1.03;;;;;;;15.07;73.85;96813.97;5056382;28;20649;-83
2023/10/28 10:59:25;;;;;;;2.20;1.10;;;;;;;15.04;75.15;96818.81;5055895;28;20206;-83
2023/10/28 11:01:52;;;;;;;2.13;1.10;;;;;;;15.17;73.86;96817.31;5055301;28;20720;-83
2023/10/28 11:04:18;;;;;;;1.60;1.20;;;;;;;15.16;74.20;96817.47;5055143;28;20241;-83
2023/10/28 11:06:45;;;;;;;3.00;1.30;;;;;;;15.19;73.15;96810.00;5055009;28;20218;-82
2023/10/28 11:09:15;;;;;;;2.20;1.10;;;;;;;15.11;73.57;96817.16;5055409;28;20211;-84
2023/10/28 11:11:41;;;;;;;2.60;0.97;;;;;;;15.14;74.86;96824.78;5057199;28;20230;-83
2023/10/28 11:14:10;;;;;;;2.20;0.73;;;;;;;14.96;75.96;96826.78;5055383;28;20212;-84
2023/10/28 11:16:38;;;;;;;3.80;1.80;;;;;;;14.91;76.25;96827.25;5055225;28;20230;-84
2023/10/28 11:19:05;;;;;;;2.47;1.10;;;;;;;14.89;74.22;96817.78;5056392;28;20233;-84
2023/10/28 11:21:33;;;;;;;3.70;1.00;;;;;;;14.68;74.83;96817.41;5056691;28;20728;-84
2023/10/28 11:24:00;;;;;;;3.30;1.17;;;;;;;14.61;74.59;96816.41;5056352;28;20543;-81
2023/10/28 11:26:28;;;;;;;3.87;1.20;;;;;;;14.45;77.05;96825.16;5053438;28;20636;-81
2023/10/28 11:28:59;;;;;;;3.83;1.20;;;;;;;14.40;77.29;96819.50;5053362;28;20686;-81
2023/10/28 11:31:29;;;;;;;1.53;0.97;;;;;;;14.31;78.82;96840.88;5052800;28;20241;-81
2023/10/28 11:33:57;;;;;;;3.50;1.10;;;;;;;14.28;77.46;96823.44;5052815;28;20216;-81